sensor_id;sensor_type;location;lat;lon;timestamp;P1;durP1;ratioP1;P2;durP2;ratioP2
51824;SDS011;37879;52.986;6.282;2023-05-14T00:01:15;19.05;;;11.65;;
51824;SDS011;37879;52.986;6.282;2023-05-14T00:03:40;18.35;;;12.05;;
51824;SDS011;37879;52.986;6.282;2023-05-14T00:06:06;19.10;;;11.68;;
51824;SDS011;37879;52.986;6.282;2023-05-14T00:08:32;19.98;;;11.25;;
51824;SDS011;37879;52.986;6.282;2023-05-14T00:10:58;18.60;;;11.52;;
51824;SDS011;37879;52.986;6.282;2023-05-14T00:13:24;16.13;;;11.07;;
51824;SDS011;37879;52.986;6.282;2023-05-14T00:15:50;23.80;;;12.45;;
51824;SDS011;37879;52.986;6.282;2023-05-14T00:18:16;15.65;;;10.32;;
51824;SDS011;37879;52.986;6.282;2023-05-14T00:20:42;17.50;;;10.77;;
51824;SDS011;37879;52.986;6.282;2023-05-14T00:23:07;13.73;;;9.73;;
51824;SDS011;37879;52.986;6.282;2023-05-14T00:25:33;15.70;;;10.25;;
51824;SDS011;37879;52.986;6.282;2023-05-14T00:27:59;16.48;;;10.32;;
51824;SDS011;37879;52.986;6.282;2023-05-14T00:30:24;16.23;;;9.38;;
51824;SDS011;37879;52.986;6.282;2023-05-14T00:32:50;12.63;;;8.68;;
51824;SDS011;37879;52.986;6.282;2023-05-14T00:35:15;12.48;;;8.30;;
51824;SDS011;37879;52.986;6.282;2023-05-14T00:37:41;19.77;;;10.18;;
51824;SDS011;37879;52.986;6.282;2023-05-14T00:40:07;14.90;;;9.93;;
51824;SDS011;37879;52.986;6.282;2023-05-14T00:42:35;12.73;;;9.50;;
51824;SDS011;37879;52.986;6.282;2023-05-14T00:45:01;15.80;;;8.27;;
51824;SDS011;37879;52.986;6.282;2023-05-14T00:47:27;16.80;;;10.43;;
51824;SDS011;37879;52.986;6.282;2023-05-14T00:49:52;16.35;;;9.80;;
51824;SDS011;37879;52.986;6.282;2023-05-14T00:52:18;11.77;;;7.00;;
51824;SDS011;37879;52.986;6.282;2023-05-14T00:54:45;16.30;;;10.63;;
51824;SDS011;37879;52.986;6.282;2023-05-14T00:57:11;14.02;;;9.25;;
51824;SDS011;37879;52.986;6.282;2023-05-14T00:59:37;16.02;;;10.35;;
51824;SDS011;37879;52.986;6.282;2023-05-14T01:02:05;20.88;;;10.10;;
51824;SDS011;37879;52.986;6.282;2023-05-14T01:04:31;12.77;;;7.95;;
51824;SDS011;37879;52.986;6.282;2023-05-14T01:07:08;15.00;;;9.00;;
51824;SDS011;37879;52.986;6.282;2023-05-14T01:15:17;16.25;;;8.43;;
51824;SDS011;37879;52.986;6.282;2023-05-14T01:20:31;14.20;;;8.52;;
51824;SDS011;37879;52.986;6.282;2023-05-14T01:22:56;12.13;;;7.78;;
51824;SDS011;37879;52.986;6.282;2023-05-14T01:25:22;14.55;;;8.38;;
51824;SDS011;37879;52.986;6.282;2023-05-14T01:30:43;18.20;;;9.40;;
51824;SDS011;37879;52.986;6.282;2023-05-14T01:33:13;16.65;;;8.95;;
51824;SDS011;37879;52.986;6.282;2023-05-14T01:35:42;13.18;;;7.93;;
51824;SDS011;37879;52.986;6.282;2023-05-14T01:38:09;13.15;;;8.35;;
51824;SDS011;37879;52.986;6.282;2023-05-14T01:40:37;11.85;;;8.63;;
51824;SDS011;37879;52.986;6.282;2023-05-14T01:43:03;15.70;;;8.65;;
51824;SDS011;37879;52.986;6.282;2023-05-14T01:45:30;18.30;;;8.38;;
51824;SDS011;37879;52.986;6.282;2023-05-14T01:47:58;13.73;;;8.10;;
51824;SDS011;37879;52.986;6.282;2023-05-14T01:50:24;17.42;;;7.82;;
51824;SDS011;37879;52.986;6.282;2023-05-14T01:52:49;15.43;;;7.47;;
51824;SDS011;37879;52.986;6.282;2023-05-14T01:55:17;14.13;;;9.18;;
51824;SDS011;37879;52.986;6.282;2023-05-14T01:57:43;14.05;;;8.02;;
51824;SDS011;37879;52.986;6.282;2023-05-14T02:00:08;14.98;;;7.90;;
51824;SDS011;37879;52.986;6.282;2023-05-14T02:02:34;12.75;;;8.50;;
51824;SDS011;37879;52.986;6.282;2023-05-14T02:05:00;11.48;;;7.35;;
51824;SDS011;37879;52.986;6.282;2023-05-14T02:07:26;10.98;;;8.30;;
51824;SDS011;37879;52.986;6.282;2023-05-14T02:09:51;16.55;;;8.63;;
51824;SDS011;37879;52.986;6.282;2023-05-14T02:12:17;13.80;;;8.02;;
51824;SDS011;37879;52.986;6.282;2023-05-14T02:14:42;9.65;;;7.10;;
51824;SDS011;37879;52.986;6.282;2023-05-14T02:17:08;12.85;;;7.22;;
51824;SDS011;37879;52.986;6.282;2023-05-14T02:19:34;9.57;;;6.00;;
51824;SDS011;37879;52.986;6.282;2023-05-14T02:21:59;10.65;;;7.60;;
51824;SDS011;37879;52.986;6.282;2023-05-14T02:24:25;10.60;;;7.55;;
51824;SDS011;37879;52.986;6.282;2023-05-14T02:26:51;13.88;;;7.93;;
51824;SDS011;37879;52.986;6.282;2023-05-14T02:29:16;13.23;;;8.65;;
51824;SDS011;37879;52.986;6.282;2023-05-14T02:31:42;12.15;;;7.20;;
51824;SDS011;37879;52.986;6.282;2023-05-14T02:34:08;13.98;;;8.55;;
51824;SDS011;37879;52.986;6.282;2023-05-14T02:36:34;13.25;;;8.52;;
51824;SDS011;37879;52.986;6.282;2023-05-14T02:38:59;12.80;;;7.78;;
51824;SDS011;37879;52.986;6.282;2023-05-14T02:41:25;13.38;;;7.68;;
51824;SDS011;37879;52.986;6.282;2023-05-14T02:43:51;15.27;;;8.57;;
51824;SDS011;37879;52.986;6.282;2023-05-14T02:46:17;12.20;;;8.48;;
51824;SDS011;37879;52.986;6.282;2023-05-14T02:48:43;12.95;;;8.60;;
51824;SDS011;37879;52.986;6.282;2023-05-14T02:51:08;14.05;;;8.65;;
51824;SDS011;37879;52.986;6.282;2023-05-14T02:53:34;13.90;;;7.95;;
51824;SDS011;37879;52.986;6.282;2023-05-14T02:56:00;14.75;;;8.98;;
51824;SDS011;37879;52.986;6.282;2023-05-14T02:58:25;11.23;;;7.28;;
51824;SDS011;37879;52.986;6.282;2023-05-14T03:00:51;12.77;;;7.03;;
51824;SDS011;37879;52.986;6.282;2023-05-14T03:03:17;13.55;;;8.35;;
51824;SDS011;37879;52.986;6.282;2023-05-14T03:05:43;17.30;;;8.52;;
51824;SDS011;37879;52.986;6.282;2023-05-14T03:08:09;13.73;;;7.68;;
51824;SDS011;37879;52.986;6.282;2023-05-14T03:10:35;15.25;;;7.97;;
51824;SDS011;37879;52.986;6.282;2023-05-14T03:13:01;17.10;;;8.52;;
51824;SDS011;37879;52.986;6.282;2023-05-14T03:15:26;14.75;;;8.75;;
51824;SDS011;37879;52.986;6.282;2023-05-14T03:17:52;18.77;;;9.07;;
51824;SDS011;37879;52.986;6.282;2023-05-14T03:20:17;11.80;;;7.15;;
51824;SDS011;37879;52.986;6.282;2023-05-14T03:22:43;13.95;;;8.00;;
51824;SDS011;37879;52.986;6.282;2023-05-14T03:25:09;18.55;;;8.30;;
51824;SDS011;37879;52.986;6.282;2023-05-14T03:27:34;15.55;;;8.23;;
51824;SDS011;37879;52.986;6.282;2023-05-14T03:30:00;16.35;;;8.63;;
51824;SDS011;37879;52.986;6.282;2023-05-14T03:32:26;13.23;;;7.63;;
51824;SDS011;37879;52.986;6.282;2023-05-14T03:34:51;20.08;;;9.02;;
51824;SDS011;37879;52.986;6.282;2023-05-14T03:37:17;14.82;;;7.43;;
51824;SDS011;37879;52.986;6.282;2023-05-14T03:39:43;15.27;;;7.93;;
51824;SDS011;37879;52.986;6.282;2023-05-14T03:42:08;13.88;;;8.25;;
51824;SDS011;37879;52.986;6.282;2023-05-14T03:44:34;12.50;;;6.95;;
51824;SDS011;37879;52.986;6.282;2023-05-14T03:47:00;16.40;;;7.97;;
51824;SDS011;37879;52.986;6.282;2023-05-14T03:49:25;13.77;;;7.30;;
51824;SDS011;37879;52.986;6.282;2023-05-14T03:51:51;12.35;;;8.27;;
51824;SDS011;37879;52.986;6.282;2023-05-14T03:54:16;9.93;;;6.28;;
51824;SDS011;37879;52.986;6.282;2023-05-14T03:56:42;12.10;;;8.55;;
51824;SDS011;37879;52.986;6.282;2023-05-14T03:59:07;15.48;;;8.02;;
51824;SDS011;37879;52.986;6.282;2023-05-14T04:01:33;13.65;;;8.52;;
51824;SDS011;37879;52.986;6.282;2023-05-14T04:03:59;17.52;;;7.93;;
51824;SDS011;37879;52.986;6.282;2023-05-14T04:06:24;16.20;;;8.93;;
51824;SDS011;37879;52.986;6.282;2023-05-14T04:08:50;16.85;;;7.90;;
51824;SDS011;37879;52.986;6.282;2023-05-14T04:11:15;20.75;;;9.20;;
51824;SDS011;37879;52.986;6.282;2023-05-14T04:13:41;15.25;;;8.10;;
51824;SDS011;37879;52.986;6.282;2023-05-14T04:16:06;19.33;;;8.60;;
51824;SDS011;37879;52.986;6.282;2023-05-14T04:18:32;13.70;;;6.60;;
51824;SDS011;37879;52.986;6.282;2023-05-14T04:21:01;13.13;;;7.40;;
51824;SDS011;37879;52.986;6.282;2023-05-14T04:23:27;11.32;;;8.15;;
51824;SDS011;37879;52.986;6.282;2023-05-14T04:25:53;19.08;;;9.20;;
51824;SDS011;37879;52.986;6.282;2023-05-14T04:28:19;17.80;;;9.20;;
51824;SDS011;37879;52.986;6.282;2023-05-14T04:30:44;17.20;;;8.93;;
51824;SDS011;37879;52.986;6.282;2023-05-14T04:33:10;14.65;;;8.68;;
51824;SDS011;37879;52.986;6.282;2023-05-14T04:35:36;15.80;;;9.45;;
51824;SDS011;37879;52.986;6.282;2023-05-14T04:38:02;15.43;;;9.60;;
51824;SDS011;37879;52.986;6.282;2023-05-14T04:40:27;21.17;;;10.50;;
51824;SDS011;37879;52.986;6.282;2023-05-14T04:42:55;19.08;;;9.95;;
51824;SDS011;37879;52.986;6.282;2023-05-14T04:45:20;13.80;;;8.18;;
51824;SDS011;37879;52.986;6.282;2023-05-14T04:47:46;12.63;;;8.43;;
51824;SDS011;37879;52.986;6.282;2023-05-14T04:50:12;21.25;;;9.60;;
51824;SDS011;37879;52.986;6.282;2023-05-14T04:52:38;14.52;;;9.23;;
51824;SDS011;37879;52.986;6.282;2023-05-14T04:55:04;15.23;;;9.00;;
51824;SDS011;37879;52.986;6.282;2023-05-14T04:57:30;13.73;;;9.30;;
51824;SDS011;37879;52.986;6.282;2023-05-14T04:59:55;20.50;;;8.98;;
51824;SDS011;37879;52.986;6.282;2023-05-14T05:02:21;15.55;;;8.35;;
51824;SDS011;37879;52.986;6.282;2023-05-14T05:04:46;16.02;;;8.70;;
51824;SDS011;37879;52.986;6.282;2023-05-14T05:07:12;21.17;;;9.23;;
51824;SDS011;37879;52.986;6.282;2023-05-14T05:09:38;18.35;;;9.27;;
51824;SDS011;37879;52.986;6.282;2023-05-14T05:12:04;16.17;;;8.82;;
51824;SDS011;37879;52.986;6.282;2023-05-14T05:14:30;17.33;;;8.23;;
51824;SDS011;37879;52.986;6.282;2023-05-14T05:16:56;17.58;;;7.80;;
51824;SDS011;37879;52.986;6.282;2023-05-14T05:19:22;14.02;;;7.78;;
51824;SDS011;37879;52.986;6.282;2023-05-14T05:21:47;13.98;;;8.30;;
51824;SDS011;37879;52.986;6.282;2023-05-14T05:24:13;12.68;;;7.72;;
51824;SDS011;37879;52.986;6.282;2023-05-14T05:26:39;16.02;;;8.55;;
51824;SDS011;37879;52.986;6.282;2023-05-14T05:29:04;14.80;;;8.38;;
51824;SDS011;37879;52.986;6.282;2023-05-14T05:31:31;14.63;;;8.00;;
51824;SDS011;37879;52.986;6.282;2023-05-14T05:33:58;16.58;;;8.35;;
51824;SDS011;37879;52.986;6.282;2023-05-14T05:36:24;28.80;;;9.07;;
51824;SDS011;37879;52.986;6.282;2023-05-14T05:38:50;17.77;;;8.63;;
51824;SDS011;37879;52.986;6.282;2023-05-14T05:41:15;22.60;;;9.23;;
51824;SDS011;37879;52.986;6.282;2023-05-14T05:43:41;14.95;;;9.07;;
51824;SDS011;37879;52.986;6.282;2023-05-14T05:46:07;13.55;;;5.88;;
51824;SDS011;37879;52.986;6.282;2023-05-14T05:48:32;9.52;;;4.63;;
51824;SDS011;37879;52.986;6.282;2023-05-14T05:50:58;19.02;;;8.70;;
51824;SDS011;37879;52.986;6.282;2023-05-14T05:53:24;12.10;;;7.03;;
51824;SDS011;37879;52.986;6.282;2023-05-14T05:55:50;20.02;;;10.25;;
51824;SDS011;37879;52.986;6.282;2023-05-14T05:58:16;15.05;;;8.77;;
51824;SDS011;37879;52.986;6.282;2023-05-14T06:00:43;18.58;;;9.13;;
51824;SDS011;37879;52.986;6.282;2023-05-14T06:03:09;20.20;;;9.95;;
51824;SDS011;37879;52.986;6.282;2023-05-14T06:05:35;16.45;;;9.75;;
51824;SDS011;37879;52.986;6.282;2023-05-14T06:08:01;10.07;;;4.97;;
51824;SDS011;37879;52.986;6.282;2023-05-14T06:10:26;13.80;;;9.20;;
51824;SDS011;37879;52.986;6.282;2023-05-14T06:12:52;16.85;;;9.75;;
51824;SDS011;37879;52.986;6.282;2023-05-14T06:15:18;17.85;;;8.80;;
51824;SDS011;37879;52.986;6.282;2023-05-14T06:17:43;11.88;;;8.35;;
51824;SDS011;37879;52.986;6.282;2023-05-14T06:20:10;15.27;;;9.07;;
51824;SDS011;37879;52.986;6.282;2023-05-14T06:22:35;17.23;;;8.38;;
51824;SDS011;37879;52.986;6.282;2023-05-14T06:25:02;26.05;;;8.75;;
51824;SDS011;37879;52.986;6.282;2023-05-14T06:27:28;16.02;;;9.02;;
51824;SDS011;37879;52.986;6.282;2023-05-14T06:29:54;12.90;;;9.05;;
51824;SDS011;37879;52.986;6.282;2023-05-14T06:32:19;14.30;;;8.35;;
51824;SDS011;37879;52.986;6.282;2023-05-14T06:34:45;18.20;;;8.77;;
51824;SDS011;37879;52.986;6.282;2023-05-14T06:37:10;15.82;;;8.65;;
51824;SDS011;37879;52.986;6.282;2023-05-14T06:39:36;18.42;;;8.80;;
51824;SDS011;37879;52.986;6.282;2023-05-14T06:42:02;14.00;;;7.75;;
51824;SDS011;37879;52.986;6.282;2023-05-14T06:44:28;11.25;;;7.63;;
51824;SDS011;37879;52.986;6.282;2023-05-14T06:46:54;13.75;;;7.47;;
51824;SDS011;37879;52.986;6.282;2023-05-14T06:49:19;12.52;;;8.07;;
51824;SDS011;37879;52.986;6.282;2023-05-14T06:51:45;19.08;;;7.97;;
51824;SDS011;37879;52.986;6.282;2023-05-14T06:54:11;15.95;;;8.32;;
51824;SDS011;37879;52.986;6.282;2023-05-14T06:56:37;14.15;;;8.25;;
51824;SDS011;37879;52.986;6.282;2023-05-14T06:59:02;10.45;;;7.40;;
51824;SDS011;37879;52.986;6.282;2023-05-14T07:01:28;19.30;;;8.57;;
51824;SDS011;37879;52.986;6.282;2023-05-14T07:03:54;17.23;;;8.32;;
51824;SDS011;37879;52.986;6.282;2023-05-14T07:06:20;13.00;;;8.98;;
51824;SDS011;37879;52.986;6.282;2023-05-14T07:08:46;16.25;;;8.40;;
51824;SDS011;37879;52.986;6.282;2023-05-14T07:11:12;16.55;;;8.02;;
51824;SDS011;37879;52.986;6.282;2023-05-14T07:13:38;17.00;;;7.55;;
51824;SDS011;37879;52.986;6.282;2023-05-14T07:16:04;13.77;;;7.28;;
51824;SDS011;37879;52.986;6.282;2023-05-14T07:18:31;12.10;;;6.93;;
51824;SDS011;37879;52.986;6.282;2023-05-14T07:20:56;12.13;;;7.72;;
51824;SDS011;37879;52.986;6.282;2023-05-14T07:23:22;14.13;;;7.18;;
51824;SDS011;37879;52.986;6.282;2023-05-14T07:25:48;13.70;;;7.50;;
51824;SDS011;37879;52.986;6.282;2023-05-14T07:28:13;16.40;;;7.85;;
51824;SDS011;37879;52.986;6.282;2023-05-14T07:30:39;16.65;;;8.73;;
51824;SDS011;37879;52.986;6.282;2023-05-14T07:33:04;14.93;;;8.18;;
51824;SDS011;37879;52.986;6.282;2023-05-14T07:35:30;15.98;;;9.35;;
51824;SDS011;37879;52.986;6.282;2023-05-14T07:37:56;16.42;;;7.97;;
51824;SDS011;37879;52.986;6.282;2023-05-14T07:40:22;8.63;;;6.07;;
51824;SDS011;37879;52.986;6.282;2023-05-14T07:42:49;15.50;;;8.35;;
51824;SDS011;37879;52.986;6.282;2023-05-14T07:45:14;14.43;;;8.63;;
51824;SDS011;37879;52.986;6.282;2023-05-14T07:47:40;14.88;;;8.05;;
51824;SDS011;37879;52.986;6.282;2023-05-14T07:50:06;10.45;;;6.90;;
51824;SDS011;37879;52.986;6.282;2023-05-14T07:52:32;16.48;;;8.32;;
51824;SDS011;37879;52.986;6.282;2023-05-14T07:54:58;13.32;;;7.57;;
51824;SDS011;37879;52.986;6.282;2023-05-14T07:57:25;16.08;;;7.65;;
51824;SDS011;37879;52.986;6.282;2023-05-14T07:59:50;9.15;;;6.55;;
51824;SDS011;37879;52.986;6.282;2023-05-14T08:02:16;10.52;;;6.68;;
51824;SDS011;37879;52.986;6.282;2023-05-14T08:04:42;12.52;;;7.25;;
51824;SDS011;37879;52.986;6.282;2023-05-14T08:07:07;10.88;;;7.65;;
51824;SDS011;37879;52.986;6.282;2023-05-14T08:09:33;12.52;;;7.15;;
51824;SDS011;37879;52.986;6.282;2023-05-14T08:11:59;10.23;;;6.63;;
51824;SDS011;37879;52.986;6.282;2023-05-14T08:14:25;11.18;;;7.10;;
51824;SDS011;37879;52.986;6.282;2023-05-14T08:16:50;9.85;;;6.78;;
51824;SDS011;37879;52.986;6.282;2023-05-14T08:19:16;12.70;;;6.82;;
51824;SDS011;37879;52.986;6.282;2023-05-14T08:21:42;13.43;;;7.35;;
51824;SDS011;37879;52.986;6.282;2023-05-14T08:24:08;10.30;;;6.97;;
51824;SDS011;37879;52.986;6.282;2023-05-14T08:26:33;17.10;;;8.18;;
51824;SDS011;37879;52.986;6.282;2023-05-14T08:28:59;14.93;;;7.85;;
51824;SDS011;37879;52.986;6.282;2023-05-14T08:31:25;12.05;;;6.90;;
51824;SDS011;37879;52.986;6.282;2023-05-14T08:33:51;14.07;;;6.93;;
51824;SDS011;37879;52.986;6.282;2023-05-14T08:36:16;16.20;;;7.07;;
51824;SDS011;37879;52.986;6.282;2023-05-14T08:38:42;11.30;;;6.78;;
51824;SDS011;37879;52.986;6.282;2023-05-14T08:41:09;13.88;;;6.80;;
51824;SDS011;37879;52.986;6.282;2023-05-14T08:46:29;9.15;;;6.60;;
51824;SDS011;37879;52.986;6.282;2023-05-14T08:49:01;11.15;;;6.53;;
51824;SDS011;37879;52.986;6.282;2023-05-14T08:51:38;11.20;;;6.28;;
51824;SDS011;37879;52.986;6.282;2023-05-14T08:54:04;9.45;;;5.80;;
51824;SDS011;37879;52.986;6.282;2023-05-14T08:56:33;13.55;;;7.20;;
51824;SDS011;37879;52.986;6.282;2023-05-14T08:59:00;12.57;;;6.80;;
51824;SDS011;37879;52.986;6.282;2023-05-14T09:01:26;10.10;;;7.53;;
51824;SDS011;37879;52.986;6.282;2023-05-14T09:03:53;11.70;;;6.55;;
51824;SDS011;37879;52.986;6.282;2023-05-14T09:06:19;10.45;;;7.32;;
51824;SDS011;37879;52.986;6.282;2023-05-14T09:08:46;11.65;;;5.97;;
51824;SDS011;37879;52.986;6.282;2023-05-14T09:11:12;17.27;;;8.63;;
51824;SDS011;37879;52.986;6.282;2023-05-14T09:13:37;10.15;;;6.30;;
51824;SDS011;37879;52.986;6.282;2023-05-14T09:16:03;10.85;;;6.15;;
51824;SDS011;37879;52.986;6.282;2023-05-14T09:18:29;13.60;;;7.57;;
51824;SDS011;37879;52.986;6.282;2023-05-14T09:20:56;12.05;;;7.45;;
51824;SDS011;37879;52.986;6.282;2023-05-14T09:23:23;10.02;;;7.18;;
51824;SDS011;37879;52.986;6.282;2023-05-14T09:25:50;9.90;;;7.30;;
51824;SDS011;37879;52.986;6.282;2023-05-14T09:28:16;11.45;;;6.28;;
51824;SDS011;37879;52.986;6.282;2023-05-14T09:30:45;9.40;;;6.40;;
51824;SDS011;37879;52.986;6.282;2023-05-14T09:33:25;12.50;;;7.32;;
51824;SDS011;37879;52.986;6.282;2023-05-14T09:35:58;14.15;;;7.45;;
51824;SDS011;37879;52.986;6.282;2023-05-14T09:38:31;9.80;;;5.90;;
51824;SDS011;37879;52.986;6.282;2023-05-14T09:40:57;10.02;;;7.10;;
51824;SDS011;37879;52.986;6.282;2023-05-14T09:43:24;10.93;;;7.70;;
51824;SDS011;37879;52.986;6.282;2023-05-14T09:45:50;12.85;;;7.40;;
51824;SDS011;37879;52.986;6.282;2023-05-14T09:48:16;8.93;;;5.32;;
51824;SDS011;37879;52.986;6.282;2023-05-14T09:50:42;10.48;;;7.03;;
51824;SDS011;37879;52.986;6.282;2023-05-14T09:53:08;9.68;;;7.38;;
51824;SDS011;37879;52.986;6.282;2023-05-14T09:55:37;12.00;;;6.65;;
51824;SDS011;37879;52.986;6.282;2023-05-14T09:58:04;10.52;;;7.32;;
51824;SDS011;37879;52.986;6.282;2023-05-14T10:00:34;9.65;;;6.85;;
51824;SDS011;37879;52.986;6.282;2023-05-14T10:03:04;9.40;;;6.80;;
51824;SDS011;37879;52.986;6.282;2023-05-14T10:05:35;13.32;;;6.60;;
51824;SDS011;37879;52.986;6.282;2023-05-14T10:08:08;14.00;;;6.97;;
51824;SDS011;37879;52.986;6.282;2023-05-14T10:10:38;14.55;;;6.78;;
51824;SDS011;37879;52.986;6.282;2023-05-14T10:13:05;10.43;;;6.80;;
51824;SDS011;37879;52.986;6.282;2023-05-14T10:15:38;10.43;;;6.65;;
51824;SDS011;37879;52.986;6.282;2023-05-14T10:18:09;12.38;;;6.53;;
51824;SDS011;37879;52.986;6.282;2023-05-14T10:20:36;10.65;;;6.30;;
51824;SDS011;37879;52.986;6.282;2023-05-14T10:23:04;12.23;;;7.13;;
51824;SDS011;37879;52.986;6.282;2023-05-14T10:25:31;10.57;;;7.18;;
51824;SDS011;37879;52.986;6.282;2023-05-14T10:27:58;14.20;;;7.28;;
51824;SDS011;37879;52.986;6.282;2023-05-14T10:30:24;11.27;;;7.40;;
51824;SDS011;37879;52.986;6.282;2023-05-14T10:33:07;13.13;;;6.57;;
51824;SDS011;37879;52.986;6.282;2023-05-14T10:38:42;14.27;;;6.82;;
51824;SDS011;37879;52.986;6.282;2023-05-14T10:41:11;10.88;;;6.78;;
51824;SDS011;37879;52.986;6.282;2023-05-14T10:43:42;11.38;;;6.30;;
51824;SDS011;37879;52.986;6.282;2023-05-14T10:46:08;10.77;;;6.68;;
51824;SDS011;37879;52.986;6.282;2023-05-14T10:48:36;10.32;;;6.05;;
51824;SDS011;37879;52.986;6.282;2023-05-14T10:51:03;8.38;;;6.57;;
51824;SDS011;37879;52.986;6.282;2023-05-14T10:53:33;9.10;;;5.97;;
51824;SDS011;37879;52.986;6.282;2023-05-14T10:56:07;11.07;;;6.38;;
51824;SDS011;37879;52.986;6.282;2023-05-14T10:58:37;8.65;;;6.05;;
51824;SDS011;37879;52.986;6.282;2023-05-14T11:01:07;9.25;;;6.43;;
51824;SDS011;37879;52.986;6.282;2023-05-14T11:03:38;8.77;;;6.10;;
51824;SDS011;37879;52.986;6.282;2023-05-14T11:06:05;14.25;;;7.55;;
51824;SDS011;37879;52.986;6.282;2023-05-14T11:08:31;8.95;;;5.50;;
51824;SDS011;37879;52.986;6.282;2023-05-14T11:10:57;7.63;;;6.43;;
51824;SDS011;37879;52.986;6.282;2023-05-14T11:13:27;7.57;;;5.40;;
51824;SDS011;37879;52.986;6.282;2023-05-14T11:15:53;10.05;;;5.93;;
51824;SDS011;37879;52.986;6.282;2023-05-14T11:18:26;8.93;;;5.30;;
51824;SDS011;37879;52.986;6.282;2023-05-14T11:21:02;8.88;;;5.45;;
51824;SDS011;37879;52.986;6.282;2023-05-14T11:23:28;10.40;;;6.03;;
51824;SDS011;37879;52.986;6.282;2023-05-14T11:25:54;10.65;;;6.18;;
51824;SDS011;37879;52.986;6.282;2023-05-14T11:28:21;10.90;;;6.13;;
51824;SDS011;37879;52.986;6.282;2023-05-14T11:30:48;11.38;;;5.57;;
51824;SDS011;37879;52.986;6.282;2023-05-14T11:33:17;11.65;;;6.88;;
51824;SDS011;37879;52.986;6.282;2023-05-14T11:35:44;10.88;;;5.93;;
51824;SDS011;37879;52.986;6.282;2023-05-14T11:38:16;6.55;;;4.50;;
51824;SDS011;37879;52.986;6.282;2023-05-14T11:40:50;8.80;;;5.18;;
51824;SDS011;37879;52.986;6.282;2023-05-14T11:43:17;10.95;;;6.22;;
51824;SDS011;37879;52.986;6.282;2023-05-14T11:45:42;10.48;;;5.18;;
51824;SDS011;37879;52.986;6.282;2023-05-14T11:48:17;9.47;;;6.70;;
51824;SDS011;37879;52.986;6.282;2023-05-14T11:50:44;8.98;;;5.03;;
51824;SDS011;37879;52.986;6.282;2023-05-14T11:55:50;11.77;;;5.45;;
51824;SDS011;37879;52.986;6.282;2023-05-14T11:58:27;9.48;;;5.65;;
51824;SDS011;37879;52.986;6.282;2023-05-14T12:00:57;9.30;;;6.25;;
51824;SDS011;37879;52.986;6.282;2023-05-14T12:03:23;9.63;;;6.30;;
51824;SDS011;37879;52.986;6.282;2023-05-14T12:05:57;7.50;;;5.90;;
51824;SDS011;37879;52.986;6.282;2023-05-14T12:08:27;6.97;;;4.95;;
51824;SDS011;37879;52.986;6.282;2023-05-14T12:10:54;8.23;;;5.95;;
51824;SDS011;37879;52.986;6.282;2023-05-14T12:13:24;8.30;;;5.07;;
51824;SDS011;37879;52.986;6.282;2023-05-14T12:15:57;7.85;;;4.50;;
51824;SDS011;37879;52.986;6.282;2023-05-14T12:18:24;9.07;;;5.15;;
51824;SDS011;37879;52.986;6.282;2023-05-14T12:20:54;6.10;;;3.45;;
51824;SDS011;37879;52.986;6.282;2023-05-14T12:23:24;7.55;;;3.92;;
51824;SDS011;37879;52.986;6.282;2023-05-14T12:25:51;6.80;;;4.10;;
51824;SDS011;37879;52.986;6.282;2023-05-14T12:28:17;5.90;;;3.75;;
51824;SDS011;37879;52.986;6.282;2023-05-14T12:30:44;5.25;;;4.20;;
51824;SDS011;37879;52.986;6.282;2023-05-14T12:33:10;6.80;;;4.05;;
51824;SDS011;37879;52.986;6.282;2023-05-14T12:35:36;5.45;;;3.45;;
51824;SDS011;37879;52.986;6.282;2023-05-14T12:38:02;6.22;;;3.03;;
51824;SDS011;37879;52.986;6.282;2023-05-14T12:40:28;4.70;;;3.22;;
51824;SDS011;37879;52.986;6.282;2023-05-14T12:42:53;5.40;;;3.67;;
51824;SDS011;37879;52.986;6.282;2023-05-14T12:45:19;4.15;;;3.28;;
51824;SDS011;37879;52.986;6.282;2023-05-14T12:47:45;4.55;;;3.17;;
51824;SDS011;37879;52.986;6.282;2023-05-14T12:50:10;7.75;;;4.00;;
51824;SDS011;37879;52.986;6.282;2023-05-14T12:52:36;5.20;;;3.10;;
51824;SDS011;37879;52.986;6.282;2023-05-14T12:55:02;7.72;;;4.50;;
51824;SDS011;37879;52.986;6.282;2023-05-14T12:57:28;6.57;;;3.65;;
51824;SDS011;37879;52.986;6.282;2023-05-14T12:59:54;4.47;;;3.20;;
51824;SDS011;37879;52.986;6.282;2023-05-14T13:02:20;4.88;;;3.08;;
51824;SDS011;37879;52.986;6.282;2023-05-14T13:04:46;4.22;;;2.83;;
51824;SDS011;37879;52.986;6.282;2023-05-14T13:07:12;4.57;;;3.08;;
51824;SDS011;37879;52.986;6.282;2023-05-14T13:09:38;4.32;;;3.38;;
51824;SDS011;37879;52.986;6.282;2023-05-14T13:12:03;7.63;;;3.78;;
51824;SDS011;37879;52.986;6.282;2023-05-14T13:14:29;6.80;;;3.05;;
51824;SDS011;37879;52.986;6.282;2023-05-14T13:16:55;4.40;;;3.17;;
51824;SDS011;37879;52.986;6.282;2023-05-14T13:19:21;5.03;;;3.72;;
51824;SDS011;37879;52.986;6.282;2023-05-14T13:21:47;3.83;;;2.85;;
51824;SDS011;37879;52.986;6.282;2023-05-14T13:24:12;8.25;;;3.67;;
51824;SDS011;37879;52.986;6.282;2023-05-14T13:26:38;6.70;;;2.88;;
51824;SDS011;37879;52.986;6.282;2023-05-14T13:29:03;4.57;;;3.10;;
51824;SDS011;37879;52.986;6.282;2023-05-14T13:31:29;8.57;;;3.10;;
51824;SDS011;37879;52.986;6.282;2023-05-14T13:33:54;5.72;;;3.65;;
51824;SDS011;37879;52.986;6.282;2023-05-14T13:36:22;5.57;;;3.90;;
51824;SDS011;37879;52.986;6.282;2023-05-14T13:38:47;5.03;;;3.40;;
51824;SDS011;37879;52.986;6.282;2023-05-14T13:41:13;7.05;;;3.30;;
51824;SDS011;37879;52.986;6.282;2023-05-14T13:43:39;3.47;;;2.92;;
51824;SDS011;37879;52.986;6.282;2023-05-14T13:46:04;5.95;;;3.53;;
51824;SDS011;37879;52.986;6.282;2023-05-14T13:48:30;5.78;;;3.33;;
51824;SDS011;37879;52.986;6.282;2023-05-14T13:50:56;6.45;;;3.03;;
51824;SDS011;37879;52.986;6.282;2023-05-14T13:53:23;4.90;;;4.00;;
51824;SDS011;37879;52.986;6.282;2023-05-14T13:55:50;7.05;;;3.50;;
51824;SDS011;37879;52.986;6.282;2023-05-14T13:58:20;4.95;;;3.03;;
51824;SDS011;37879;52.986;6.282;2023-05-14T14:00:48;3.38;;;2.67;;
51824;SDS011;37879;52.986;6.282;2023-05-14T14:03:13;4.30;;;3.30;;
51824;SDS011;37879;52.986;6.282;2023-05-14T14:05:39;6.03;;;3.80;;
51824;SDS011;37879;52.986;6.282;2023-05-14T14:08:05;4.63;;;3.42;;
51824;SDS011;37879;52.986;6.282;2023-05-14T14:10:30;5.82;;;3.60;;
51824;SDS011;37879;52.986;6.282;2023-05-14T14:12:56;5.70;;;3.10;;
51824;SDS011;37879;52.986;6.282;2023-05-14T14:15:22;4.43;;;3.10;;
51824;SDS011;37879;52.986;6.282;2023-05-14T14:17:47;4.20;;;3.05;;
51824;SDS011;37879;52.986;6.282;2023-05-14T14:20:13;4.22;;;2.83;;
51824;SDS011;37879;52.986;6.282;2023-05-14T14:22:39;3.10;;;2.58;;
51824;SDS011;37879;52.986;6.282;2023-05-14T14:25:06;6.40;;;3.50;;
51824;SDS011;37879;52.986;6.282;2023-05-14T14:27:33;5.20;;;3.60;;
51824;SDS011;37879;52.986;6.282;2023-05-14T14:30:03;6.18;;;3.88;;
51824;SDS011;37879;52.986;6.282;2023-05-14T14:32:33;4.20;;;3.45;;
51824;SDS011;37879;52.986;6.282;2023-05-14T14:34:59;7.28;;;4.60;;
51824;SDS011;37879;52.986;6.282;2023-05-14T14:37:25;6.03;;;4.18;;
51824;SDS011;37879;52.986;6.282;2023-05-14T14:39:50;5.38;;;3.92;;
51824;SDS011;37879;52.986;6.282;2023-05-14T14:42:16;7.30;;;3.50;;
51824;SDS011;37879;52.986;6.282;2023-05-14T14:44:42;6.50;;;4.63;;
51824;SDS011;37879;52.986;6.282;2023-05-14T14:47:07;7.38;;;4.75;;
51824;SDS011;37879;52.986;6.282;2023-05-14T14:49:33;4.38;;;3.90;;
51824;SDS011;37879;52.986;6.282;2023-05-14T14:51:58;6.47;;;3.83;;
51824;SDS011;37879;52.986;6.282;2023-05-14T14:54:24;5.68;;;4.00;;